sensor_id;sensor_type;location;lat;lon;timestamp;P1;durP1;ratioP1;P2;durP2;ratioP2
42912;SDS011;50720;54.324;18.558;2022-08-19T00:02:54;17.77;;;13.88;;
42912;SDS011;50720;54.324;18.558;2022-08-19T00:05:25;15.35;;;11.73;;
42912;SDS011;50720;54.324;18.558;2022-08-19T00:07:55;17.02;;;12.85;;
42912;SDS011;50720;54.324;18.558;2022-08-19T00:10:25;13.32;;;12.13;;
42912;SDS011;50720;54.324;18.558;2022-08-19T00:12:55;16.93;;;12.40;;
42912;SDS011;50720;54.324;18.558;2022-08-19T00:15:24;20.80;;;14.23;;
42912;SDS011;50720;54.324;18.558;2022-08-19T00:17:55;13.20;;;11.75;;
42912;SDS011;50720;54.324;18.558;2022-08-19T00:20:26;16.50;;;12.53;;
42912;SDS011;50720;54.324;18.558;2022-08-19T00:22:56;14.35;;;11.68;;
42912;SDS011;50720;54.324;18.558;2022-08-19T00:25:26;24.55;;;13.02;;
42912;SDS011;50720;54.324;18.558;2022-08-19T00:27:57;14.15;;;12.57;;
42912;SDS011;50720;54.324;18.558;2022-08-19T00:30:27;14.88;;;13.13;;
42912;SDS011;50720;54.324;18.558;2022-08-19T00:32:57;17.45;;;12.07;;
42912;SDS011;50720;54.324;18.558;2022-08-19T00:35:28;18.05;;;12.65;;
42912;SDS011;50720;54.324;18.558;2022-08-19T00:37:58;14.68;;;12.07;;
42912;SDS011;50720;54.324;18.558;2022-08-19T00:40:28;15.43;;;12.77;;
42912;SDS011;50720;54.324;18.558;2022-08-19T00:42:57;15.77;;;14.17;;
42912;SDS011;50720;54.324;18.558;2022-08-19T00:45:28;14.70;;;12.75;;
42912;SDS011;50720;54.324;18.558;2022-08-19T00:48:03;21.00;;;13.77;;
42912;SDS011;50720;54.324;18.558;2022-08-19T00:50:42;14.27;;;12.82;;
42912;SDS011;50720;54.324;18.558;2022-08-19T00:53:20;19.88;;;14.20;;
42912;SDS011;50720;54.324;18.558;2022-08-19T00:55:53;17.45;;;13.88;;
42912;SDS011;50720;54.324;18.558;2022-08-19T00:58:27;19.05;;;14.70;;
42912;SDS011;50720;54.324;18.558;2022-08-19T01:01:00;15.82;;;12.85;;
42912;SDS011;50720;54.324;18.558;2022-08-19T01:03:31;16.40;;;14.23;;
42912;SDS011;50720;54.324;18.558;2022-08-19T01:06:22;18.80;;;14.85;;
42912;SDS011;50720;54.324;18.558;2022-08-19T01:08:53;19.80;;;15.15;;
42912;SDS011;50720;54.324;18.558;2022-08-19T01:11:23;20.17;;;13.98;;
42912;SDS011;50720;54.324;18.558;2022-08-19T01:13:54;17.85;;;13.93;;
42912;SDS011;50720;54.324;18.558;2022-08-19T01:16:24;16.35;;;14.18;;
42912;SDS011;50720;54.324;18.558;2022-08-19T01:18:55;16.80;;;14.18;;
42912;SDS011;50720;54.324;18.558;2022-08-19T01:21:27;16.90;;;13.88;;
42912;SDS011;50720;54.324;18.558;2022-08-19T01:24:03;20.67;;;15.00;;
42912;SDS011;50720;54.324;18.558;2022-08-19T01:26:37;15.90;;;14.20;;
42912;SDS011;50720;54.324;18.558;2022-08-19T01:29:09;19.80;;;13.63;;
42912;SDS011;50720;54.324;18.558;2022-08-19T01:31:40;17.95;;;15.10;;
42912;SDS011;50720;54.324;18.558;2022-08-19T01:34:11;15.73;;;13.70;;
42912;SDS011;50720;54.324;18.558;2022-08-19T01:36:41;18.25;;;15.10;;
42912;SDS011;50720;54.324;18.558;2022-08-19T01:39:17;14.48;;;13.07;;
42912;SDS011;50720;54.324;18.558;2022-08-19T01:41:49;17.63;;;14.60;;
42912;SDS011;50720;54.324;18.558;2022-08-19T01:44:21;15.43;;;13.68;;
42912;SDS011;50720;54.324;18.558;2022-08-19T01:46:52;16.55;;;14.27;;
42912;SDS011;50720;54.324;18.558;2022-08-19T01:49:23;16.52;;;14.40;;
42912;SDS011;50720;54.324;18.558;2022-08-19T01:51:53;17.42;;;13.68;;
42912;SDS011;50720;54.324;18.558;2022-08-19T01:54:24;15.82;;;14.18;;
42912;SDS011;50720;54.324;18.558;2022-08-19T01:56:57;20.67;;;14.88;;
42912;SDS011;50720;54.324;18.558;2022-08-19T01:59:30;18.00;;;14.27;;
42912;SDS011;50720;54.324;18.558;2022-08-19T02:02:01;22.33;;;14.70;;
42912;SDS011;50720;54.324;18.558;2022-08-19T02:04:35;17.00;;;14.05;;
42912;SDS011;50720;54.324;18.558;2022-08-19T02:07:06;18.90;;;14.27;;
42912;SDS011;50720;54.324;18.558;2022-08-19T02:09:38;21.23;;;14.88;;
42912;SDS011;50720;54.324;18.558;2022-08-19T02:12:08;17.75;;;14.90;;
42912;SDS011;50720;54.324;18.558;2022-08-19T02:14:38;15.38;;;13.80;;
42912;SDS011;50720;54.324;18.558;2022-08-19T02:17:08;20.60;;;14.70;;
42912;SDS011;50720;54.324;18.558;2022-08-19T02:19:37;21.47;;;15.10;;
42912;SDS011;50720;54.324;18.558;2022-08-19T02:22:07;15.20;;;13.60;;
42912;SDS011;50720;54.324;18.558;2022-08-19T02:24:38;14.40;;;12.70;;
42912;SDS011;50720;54.324;18.558;2022-08-19T02:27:08;18.17;;;12.40;;
42912;SDS011;50720;54.324;18.558;2022-08-19T02:29:38;16.13;;;13.55;;
42912;SDS011;50720;54.324;18.558;2022-08-19T02:32:08;18.77;;;12.65;;
42912;SDS011;50720;54.324;18.558;2022-08-19T02:34:38;14.35;;;12.55;;
42912;SDS011;50720;54.324;18.558;2022-08-19T02:37:08;18.27;;;13.45;;
42912;SDS011;50720;54.324;18.558;2022-08-19T02:40:03;15.05;;;13.02;;
42912;SDS011;50720;54.324;18.558;2022-08-19T02:42:38;15.88;;;12.82;;
42912;SDS011;50720;54.324;18.558;2022-08-19T02:45:10;20.55;;;13.23;;
42912;SDS011;50720;54.324;18.558;2022-08-19T02:47:40;15.43;;;12.00;;
42912;SDS011;50720;54.324;18.558;2022-08-19T02:50:09;14.20;;;12.70;;
42912;SDS011;50720;54.324;18.558;2022-08-19T02:55:11;16.20;;;12.27;;
42912;SDS011;50720;54.324;18.558;2022-08-19T02:57:41;18.38;;;12.88;;
42912;SDS011;50720;54.324;18.558;2022-08-19T03:00:11;19.55;;;13.15;;
42912;SDS011;50720;54.324;18.558;2022-08-19T03:02:41;14.02;;;11.90;;
42912;SDS011;50720;54.324;18.558;2022-08-19T03:05:11;18.17;;;13.23;;
42912;SDS011;50720;54.324;18.558;2022-08-19T03:07:40;20.80;;;13.48;;
42912;SDS011;50720;54.324;18.558;2022-08-19T03:10:12;15.32;;;12.50;;
42912;SDS011;50720;54.324;18.558;2022-08-19T03:12:42;13.18;;;11.88;;
42912;SDS011;50720;54.324;18.558;2022-08-19T03:15:12;13.93;;;12.38;;
42912;SDS011;50720;54.324;18.558;2022-08-19T03:20:11;20.70;;;13.10;;
42912;SDS011;50720;54.324;18.558;2022-08-19T03:22:41;16.00;;;12.77;;
42912;SDS011;50720;54.324;18.558;2022-08-19T03:25:12;18.20;;;12.38;;
42912;SDS011;50720;54.324;18.558;2022-08-19T03:27:42;20.13;;;13.93;;
42912;SDS011;50720;54.324;18.558;2022-08-19T03:30:15;14.18;;;11.88;;
42912;SDS011;50720;54.324;18.558;2022-08-19T03:32:49;14.45;;;11.88;;
42912;SDS011;50720;54.324;18.558;2022-08-19T03:35:23;15.85;;;12.88;;
42912;SDS011;50720;54.324;18.558;2022-08-19T03:37:55;17.08;;;12.77;;
42912;SDS011;50720;54.324;18.558;2022-08-19T03:40:28;15.45;;;13.60;;
42912;SDS011;50720;54.324;18.558;2022-08-19T03:42:58;15.88;;;14.15;;
42912;SDS011;50720;54.324;18.558;2022-08-19T03:45:28;17.70;;;15.80;;
42912;SDS011;50720;54.324;18.558;2022-08-19T03:47:58;18.87;;;13.83;;
42912;SDS011;50720;54.324;18.558;2022-08-19T03:50:27;19.60;;;13.85;;
42912;SDS011;50720;54.324;18.558;2022-08-19T03:52:57;19.92;;;13.48;;
42912;SDS011;50720;54.324;18.558;2022-08-19T03:55:30;16.63;;;13.90;;
42912;SDS011;50720;54.324;18.558;2022-08-19T03:57:59;19.52;;;13.73;;
42912;SDS011;50720;54.324;18.558;2022-08-19T04:00:29;20.98;;;15.45;;
42912;SDS011;50720;54.324;18.558;2022-08-19T04:03:00;20.20;;;13.00;;
42912;SDS011;50720;54.324;18.558;2022-08-19T04:05:30;15.13;;;13.57;;
42912;SDS011;50720;54.324;18.558;2022-08-19T04:07:59;16.90;;;14.95;;
42912;SDS011;50720;54.324;18.558;2022-08-19T04:10:30;17.80;;;13.53;;
42912;SDS011;50720;54.324;18.558;2022-08-19T04:13:04;23.27;;;14.43;;
42912;SDS011;50720;54.324;18.558;2022-08-19T04:15:38;18.58;;;14.90;;
42912;SDS011;50720;54.324;18.558;2022-08-19T04:18:09;15.13;;;12.27;;
42912;SDS011;50720;54.324;18.558;2022-08-19T04:20:42;18.52;;;14.88;;
42912;SDS011;50720;54.324;18.558;2022-08-19T04:23:14;20.92;;;13.38;;
42912;SDS011;50720;54.324;18.558;2022-08-19T04:25:46;21.25;;;14.40;;
42912;SDS011;50720;54.324;18.558;2022-08-19T04:28:15;21.80;;;15.38;;
42912;SDS011;50720;54.324;18.558;2022-08-19T04:30:46;17.77;;;15.98;;
42912;SDS011;50720;54.324;18.558;2022-08-19T04:33:17;24.63;;;14.27;;
42912;SDS011;50720;54.324;18.558;2022-08-19T04:35:54;17.27;;;13.45;;
42912;SDS011;50720;54.324;18.558;2022-08-19T04:38:25;20.08;;;13.55;;
42912;SDS011;50720;54.324;18.558;2022-08-19T04:40:56;18.00;;;12.77;;
42912;SDS011;50720;54.324;18.558;2022-08-19T04:43:44;18.83;;;13.43;;
42912;SDS011;50720;54.324;18.558;2022-08-19T04:46:15;17.35;;;14.32;;
42912;SDS011;50720;54.324;18.558;2022-08-19T04:49:07;18.10;;;12.52;;
42912;SDS011;50720;54.324;18.558;2022-08-19T04:51:40;14.70;;;13.10;;
42912;SDS011;50720;54.324;18.558;2022-08-19T04:54:11;17.70;;;14.25;;
42912;SDS011;50720;54.324;18.558;2022-08-19T04:56:56;18.48;;;13.93;;
42912;SDS011;50720;54.324;18.558;2022-08-19T04:59:26;17.55;;;15.40;;
42912;SDS011;50720;54.324;18.558;2022-08-19T05:01:55;23.75;;;16.70;;
42912;SDS011;50720;54.324;18.558;2022-08-19T05:04:25;23.02;;;16.10;;
42912;SDS011;50720;54.324;18.558;2022-08-19T05:06:59;18.08;;;15.73;;
42912;SDS011;50720;54.324;18.558;2022-08-19T05:09:29;17.67;;;15.27;;
42912;SDS011;50720;54.324;18.558;2022-08-19T05:12:21;20.58;;;15.43;;
42912;SDS011;50720;54.324;18.558;2022-08-19T05:14:55;18.85;;;14.65;;
42912;SDS011;50720;54.324;18.558;2022-08-19T05:17:26;16.80;;;14.80;;
42912;SDS011;50720;54.324;18.558;2022-08-19T05:20:02;19.42;;;14.98;;
42912;SDS011;50720;54.324;18.558;2022-08-19T05:22:50;23.80;;;15.82;;
42912;SDS011;50720;54.324;18.558;2022-08-19T05:25:21;15.63;;;13.88;;
42912;SDS011;50720;54.324;18.558;2022-08-19T05:27:54;19.13;;;14.45;;
42912;SDS011;50720;54.324;18.558;2022-08-19T05:30:23;20.50;;;14.13;;
42912;SDS011;50720;54.324;18.558;2022-08-19T05:33:12;20.25;;;13.93;;
42912;SDS011;50720;54.324;18.558;2022-08-19T05:35:42;18.90;;;12.60;;
42912;SDS011;50720;54.324;18.558;2022-08-19T05:38:11;16.75;;;13.25;;
42912;SDS011;50720;54.324;18.558;2022-08-19T05:40:42;24.88;;;14.98;;
42912;SDS011;50720;54.324;18.558;2022-08-19T05:43:18;16.83;;;14.23;;
42912;SDS011;50720;54.324;18.558;2022-08-19T05:45:48;20.13;;;13.68;;
42912;SDS011;50720;54.324;18.558;2022-08-19T05:48:18;16.25;;;13.00;;
42912;SDS011;50720;54.324;18.558;2022-08-19T05:50:47;20.70;;;12.43;;
42912;SDS011;50720;54.324;18.558;2022-08-19T05:53:18;19.08;;;13.30;;
42912;SDS011;50720;54.324;18.558;2022-08-19T05:55:48;27.58;;;14.05;;
42912;SDS011;50720;54.324;18.558;2022-08-19T05:58:19;19.93;;;13.23;;
42912;SDS011;50720;54.324;18.558;2022-08-19T06:00:54;26.88;;;15.90;;
42912;SDS011;50720;54.324;18.558;2022-08-19T06:03:23;30.30;;;12.90;;
42912;SDS011;50720;54.324;18.558;2022-08-19T06:05:53;17.58;;;12.95;;
42912;SDS011;50720;54.324;18.558;2022-08-19T06:08:22;22.65;;;12.45;;
42912;SDS011;50720;54.324;18.558;2022-08-19T06:11:14;15.80;;;12.32;;
42912;SDS011;50720;54.324;18.558;2022-08-19T06:13:48;18.95;;;12.98;;
42912;SDS011;50720;54.324;18.558;2022-08-19T06:16:26;17.67;;;12.93;;
42912;SDS011;50720;54.324;18.558;2022-08-19T06:21:28;16.30;;;12.50;;
42912;SDS011;50720;54.324;18.558;2022-08-19T06:23:58;17.98;;;12.80;;
42912;SDS011;50720;54.324;18.558;2022-08-19T06:26:29;19.90;;;12.38;;
42912;SDS011;50720;54.324;18.558;2022-08-19T06:31:30;16.10;;;13.15;;
42912;SDS011;50720;54.324;18.558;2022-08-19T06:34:02;18.13;;;12.63;;
42912;SDS011;50720;54.324;18.558;2022-08-19T06:36:34;15.45;;;11.40;;
42912;SDS011;50720;54.324;18.558;2022-08-19T06:39:09;18.35;;;12.38;;
42912;SDS011;50720;54.324;18.558;2022-08-19T06:41:40;14.65;;;11.43;;
42912;SDS011;50720;54.324;18.558;2022-08-19T06:44:21;16.80;;;10.93;;
42912;SDS011;50720;54.324;18.558;2022-08-19T06:46:56;12.23;;;10.48;;
42912;SDS011;50720;54.324;18.558;2022-08-19T06:49:26;15.65;;;11.48;;
42912;SDS011;50720;54.324;18.558;2022-08-19T06:51:58;14.88;;;10.90;;
42912;SDS011;50720;54.324;18.558;2022-08-19T06:54:29;16.88;;;12.43;;
42912;SDS011;50720;54.324;18.558;2022-08-19T06:57:03;18.83;;;11.25;;
42912;SDS011;50720;54.324;18.558;2022-08-19T06:59:35;15.65;;;11.55;;
42912;SDS011;50720;54.324;18.558;2022-08-19T07:02:05;14.68;;;10.20;;
42912;SDS011;50720;54.324;18.558;2022-08-19T07:04:36;18.83;;;11.00;;
42912;SDS011;50720;54.324;18.558;2022-08-19T07:07:09;14.63;;;10.30;;
42912;SDS011;50720;54.324;18.558;2022-08-19T07:09:48;14.93;;;10.30;;
42912;SDS011;50720;54.324;18.558;2022-08-19T07:12:26;19.95;;;10.30;;
42912;SDS011;50720;54.324;18.558;2022-08-19T07:15:00;13.90;;;10.05;;
42912;SDS011;50720;54.324;18.558;2022-08-19T07:17:30;15.93;;;10.30;;
42912;SDS011;50720;54.324;18.558;2022-08-19T07:20:02;15.50;;;11.07;;
42912;SDS011;50720;54.324;18.558;2022-08-19T07:22:36;19.75;;;10.02;;
42912;SDS011;50720;54.324;18.558;2022-08-19T07:25:07;11.65;;;10.13;;
42912;SDS011;50720;54.324;18.558;2022-08-19T07:27:37;19.38;;;10.52;;
42912;SDS011;50720;54.324;18.558;2022-08-19T07:30:14;13.30;;;10.15;;
42912;SDS011;50720;54.324;18.558;2022-08-19T07:32:44;16.55;;;10.55;;
42912;SDS011;50720;54.324;18.558;2022-08-19T07:35:16;16.23;;;10.38;;
42912;SDS011;50720;54.324;18.558;2022-08-19T07:37:47;16.42;;;10.55;;
42912;SDS011;50720;54.324;18.558;2022-08-19T07:42:46;14.95;;;10.70;;
42912;SDS011;50720;54.324;18.558;2022-08-19T07:45:17;12.35;;;9.27;;
42912;SDS011;50720;54.324;18.558;2022-08-19T07:47:47;10.52;;;9.27;;
42912;SDS011;50720;54.324;18.558;2022-08-19T07:50:17;16.25;;;9.68;;
42912;SDS011;50720;54.324;18.558;2022-08-19T07:52:49;13.77;;;9.38;;
42912;SDS011;50720;54.324;18.558;2022-08-19T07:55:20;13.27;;;9.10;;
42912;SDS011;50720;54.324;18.558;2022-08-19T07:58:09;13.90;;;9.52;;
42912;SDS011;50720;54.324;18.558;2022-08-19T08:00:41;12.65;;;10.27;;
42912;SDS011;50720;54.324;18.558;2022-08-19T08:03:12;14.55;;;9.95;;
42912;SDS011;50720;54.324;18.558;2022-08-19T08:05:42;19.42;;;9.55;;
42912;SDS011;50720;54.324;18.558;2022-08-19T08:08:30;12.70;;;9.23;;
42912;SDS011;50720;54.324;18.558;2022-08-19T08:11:18;15.52;;;9.88;;
42912;SDS011;50720;54.324;18.558;2022-08-19T08:13:50;18.60;;;9.85;;
42912;SDS011;50720;54.324;18.558;2022-08-19T08:16:28;15.70;;;9.63;;
42912;SDS011;50720;54.324;18.558;2022-08-19T08:19:06;13.40;;;9.45;;
42912;SDS011;50720;54.324;18.558;2022-08-19T08:21:46;13.52;;;8.60;;
42912;SDS011;50720;54.324;18.558;2022-08-19T08:24:16;17.08;;;8.68;;
42912;SDS011;50720;54.324;18.558;2022-08-19T08:26:47;11.95;;;8.45;;
42912;SDS011;50720;54.324;18.558;2022-08-19T08:29:24;12.88;;;9.00;;
42912;SDS011;50720;54.324;18.558;2022-08-19T08:32:02;11.40;;;8.38;;
42912;SDS011;50720;54.324;18.558;2022-08-19T08:34:41;10.57;;;9.02;;
42912;SDS011;50720;54.324;18.558;2022-08-19T08:37:15;12.13;;;8.90;;
42912;SDS011;50720;54.324;18.558;2022-08-19T08:39:46;15.32;;;8.50;;
42912;SDS011;50720;54.324;18.558;2022-08-19T08:42:17;15.70;;;8.60;;
42912;SDS011;50720;54.324;18.558;2022-08-19T08:44:53;15.93;;;7.75;;
42912;SDS011;50720;54.324;18.558;2022-08-19T08:47:29;13.00;;;8.38;;
42912;SDS011;50720;54.324;18.558;2022-08-19T08:50:05;11.65;;;7.78;;
42912;SDS011;50720;54.324;18.558;2022-08-19T08:52:39;17.05;;;7.95;;
42912;SDS011;50720;54.324;18.558;2022-08-19T08:55:15;11.90;;;7.22;;
42912;SDS011;50720;54.324;18.558;2022-08-19T08:57:51;11.63;;;6.68;;
42912;SDS011;50720;54.324;18.558;2022-08-19T09:00:25;10.82;;;6.82;;
42912;SDS011;50720;54.324;18.558;2022-08-19T09:02:58;16.75;;;7.28;;
42912;SDS011;50720;54.324;18.558;2022-08-19T09:05:39;14.45;;;6.68;;
42912;SDS011;50720;54.324;18.558;2022-08-19T09:08:18;14.88;;;7.65;;
42912;SDS011;50720;54.324;18.558;2022-08-19T09:11:04;13.07;;;6.80;;
42912;SDS011;50720;54.324;18.558;2022-08-19T09:13:42;12.88;;;6.85;;
42912;SDS011;50720;54.324;18.558;2022-08-19T09:16:22;10.40;;;6.18;;
42912;SDS011;50720;54.324;18.558;2022-08-19T09:18:57;7.93;;;5.60;;
42912;SDS011;50720;54.324;18.558;2022-08-19T09:21:32;9.00;;;6.50;;
42912;SDS011;50720;54.324;18.558;2022-08-19T09:24:04;10.88;;;5.60;;
42912;SDS011;50720;54.324;18.558;2022-08-19T09:26:35;9.50;;;6.32;;
42912;SDS011;50720;54.324;18.558;2022-08-19T09:29:18;16.40;;;6.63;;
42912;SDS011;50720;54.324;18.558;2022-08-19T09:31:49;13.85;;;5.32;;
42912;SDS011;50720;54.324;18.558;2022-08-19T09:34:20;7.88;;;6.10;;
42912;SDS011;50720;54.324;18.558;2022-08-19T09:36:50;12.43;;;6.72;;
42912;SDS011;50720;54.324;18.558;2022-08-19T09:39:20;10.02;;;5.68;;
42912;SDS011;50720;54.324;18.558;2022-08-19T09:41:51;13.23;;;5.25;;
42912;SDS011;50720;54.324;18.558;2022-08-19T09:44:24;10.65;;;6.20;;
42912;SDS011;50720;54.324;18.558;2022-08-19T09:46:53;15.02;;;5.90;;
42912;SDS011;50720;54.324;18.558;2022-08-19T09:49:25;13.95;;;7.00;;
42912;SDS011;50720;54.324;18.558;2022-08-19T09:51:54;13.45;;;5.95;;
42912;SDS011;50720;54.324;18.558;2022-08-19T09:54:24;10.05;;;6.43;;
42912;SDS011;50720;54.324;18.558;2022-08-19T09:59:24;10.35;;;6.30;;
42912;SDS011;50720;54.324;18.558;2022-08-19T10:01:53;8.48;;;5.97;;
42912;SDS011;50720;54.324;18.558;2022-08-19T10:04:38;6.65;;;5.05;;
42912;SDS011;50720;54.324;18.558;2022-08-19T10:07:26;7.47;;;5.45;;
42912;SDS011;50720;54.324;18.558;2022-08-19T10:10:03;8.65;;;5.72;;
42912;SDS011;50720;54.324;18.558;2022-08-19T10:12:33;11.70;;;5.55;;
42912;SDS011;50720;54.324;18.558;2022-08-19T10:15:04;10.07;;;5.57;;
42912;SDS011;50720;54.324;18.558;2022-08-19T10:17:35;9.77;;;5.13;;
42912;SDS011;50720;54.324;18.558;2022-08-19T10:20:07;10.70;;;5.70;;
42912;SDS011;50720;54.324;18.558;2022-08-19T10:22:37;7.93;;;5.68;;
42912;SDS011;50720;54.324;18.558;2022-08-19T10:25:08;6.25;;;4.95;;
42912;SDS011;50720;54.324;18.558;2022-08-19T10:30:12;9.25;;;5.32;;
42912;SDS011;50720;54.324;18.558;2022-08-19T10:32:42;7.28;;;5.05;;
42912;SDS011;50720;54.324;18.558;2022-08-19T10:35:16;17.77;;;6.50;;
42912;SDS011;50720;54.324;18.558;2022-08-19T10:37:49;13.25;;;5.90;;
42912;SDS011;50720;54.324;18.558;2022-08-19T10:40:28;13.93;;;5.85;;
42912;SDS011;50720;54.324;18.558;2022-08-19T10:42:57;10.70;;;6.22;;
42912;SDS011;50720;54.324;18.558;2022-08-19T10:45:27;11.73;;;5.18;;
42912;SDS011;50720;54.324;18.558;2022-08-19T10:47:57;8.48;;;5.28;;
42912;SDS011;50720;54.324;18.558;2022-08-19T10:50:29;6.57;;;5.47;;
42912;SDS011;50720;54.324;18.558;2022-08-19T10:53:17;9.20;;;5.82;;
42912;SDS011;50720;54.324;18.558;2022-08-19T10:55:50;11.60;;;5.25;;
42912;SDS011;50720;54.324;18.558;2022-08-19T10:58:37;13.40;;;5.03;;
42912;SDS011;50720;54.324;18.558;2022-08-19T11:01:08;8.48;;;5.05;;
42912;SDS011;50720;54.324;18.558;2022-08-19T11:03:38;13.13;;;6.60;;
42912;SDS011;50720;54.324;18.558;2022-08-19T11:06:09;7.88;;;5.85;;
42912;SDS011;50720;54.324;18.558;2022-08-19T11:08:39;11.30;;;6.20;;
42912;SDS011;50720;54.324;18.558;2022-08-19T11:11:11;10.65;;;5.13;;
42912;SDS011;50720;54.324;18.558;2022-08-19T11:13:41;9.18;;;5.45;;
42912;SDS011;50720;54.324;18.558;2022-08-19T11:16:13;9.70;;;4.72;;
42912;SDS011;50720;54.324;18.558;2022-08-19T11:18:46;5.82;;;5.03;;
42912;SDS011;50720;54.324;18.558;2022-08-19T11:21:20;9.43;;;5.63;;
42912;SDS011;50720;54.324;18.558;2022-08-19T11:23:52;8.57;;;5.47;;
42912;SDS011;50720;54.324;18.558;2022-08-19T11:26:23;6.47;;;4.78;;
42912;SDS011;50720;54.324;18.558;2022-08-19T11:28:53;14.15;;;5.65;;
42912;SDS011;50720;54.324;18.558;2022-08-19T11:31:26;7.10;;;5.00;;
42912;SDS011;50720;54.324;18.558;2022-08-19T11:33:58;8.77;;;5.47;;
42912;SDS011;50720;54.324;18.558;2022-08-19T11:36:31;6.38;;;5.35;;
42912;SDS011;50720;54.324;18.558;2022-08-19T11:39:02;12.35;;;5.18;;
42912;SDS011;50720;54.324;18.558;2022-08-19T11:41:33;16.08;;;5.35;;
42912;SDS011;50720;54.324;18.558;2022-08-19T11:44:03;7.45;;;5.00;;
42912;SDS011;50720;54.324;18.558;2022-08-19T11:46:34;8.32;;;5.63;;
42912;SDS011;50720;54.324;18.558;2022-08-19T11:49:05;5.95;;;5.03;;
42912;SDS011;50720;54.324;18.558;2022-08-19T11:51:41;11.50;;;5.78;;
42912;SDS011;50720;54.324;18.558;2022-08-19T11:54:12;11.10;;;5.43;;
42912;SDS011;50720;54.324;18.558;2022-08-19T11:56:44;12.40;;;5.53;;
42912;SDS011;50720;54.324;18.558;2022-08-19T11:59:16;8.38;;;4.70;;
42912;SDS011;50720;54.324;18.558;2022-08-19T12:01:45;6.18;;;5.38;;
42912;SDS011;50720;54.324;18.558;2022-08-19T12:04:15;15.20;;;5.97;;
42912;SDS011;50720;54.324;18.558;2022-08-19T12:06:48;10.73;;;5.30;;
42912;SDS011;50720;54.324;18.558;2022-08-19T12:09:18;7.25;;;5.43;;
42912;SDS011;50720;54.324;18.558;2022-08-19T12:11:49;11.40;;;5.93;;
42912;SDS011;50720;54.324;18.558;2022-08-19T12:14:19;8.43;;;5.78;;
42912;SDS011;50720;54.324;18.558;2022-08-19T12:16:48;8.40;;;5.00;;
42912;SDS011;50720;54.324;18.558;2022-08-19T12:19:18;9.00;;;5.55;;
42912;SDS011;50720;54.324;18.558;2022-08-19T12:21:50;14.13;;;5.25;;
42912;SDS011;50720;54.324;18.558;2022-08-19T12:24:20;12.38;;;6.25;;
42912;SDS011;50720;54.324;18.558;2022-08-19T12:26:51;7.28;;;5.25;;
42912;SDS011;50720;54.324;18.558;2022-08-19T12:29:27;7.88;;;4.93;;
42912;SDS011;50720;54.324;18.558;2022-08-19T12:31:57;8.05;;;4.85;;
42912;SDS011;50720;54.324;18.558;2022-08-19T12:34:30;14.32;;;5.65;;
42912;SDS011;50720;54.324;18.558;2022-08-19T12:37:03;9.90;;;5.40;;
42912;SDS011;50720;54.324;18.558;2022-08-19T12:39:35;7.53;;;4.75;;
42912;SDS011;50720;54.324;18.558;2022-08-19T12:42:06;14.52;;;5.93;;
42912;SDS011;50720;54.324;18.558;2022-08-19T12:44:37;7.03;;;4.90;;
42912;SDS011;50720;54.324;18.558;2022-08-19T12:47:09;7.93;;;4.95;;
42912;SDS011;50720;54.324;18.558;2022-08-19T12:49:41;9.60;;;4.93;;
42912;SDS011;50720;54.324;18.558;2022-08-19T12:52:23;8.55;;;5.25;;
42912;SDS011;50720;54.324;18.558;2022-08-19T12:54:55;12.95;;;5.10;;
42912;SDS011;50720;54.324;18.558;2022-08-19T12:57:26;14.30;;;5.95;;
42912;SDS011;50720;54.324;18.558;2022-08-19T13:00:01;11.55;;;6.03;;
42912;SDS011;50720;54.324;18.558;2022-08-19T13:02:37;9.00;;;5.40;;
42912;SDS011;50720;54.324;18.558;2022-08-19T13:05:09;11.85;;;5.63;;
42912;SDS011;50720;54.324;18.558;2022-08-19T13:07:42;12.98;;;5.22;;
42912;SDS011;50720;54.324;18.558;2022-08-19T13:10:13;7.50;;;5.28;;
42912;SDS011;50720;54.324;18.558;2022-08-19T13:12:44;10.98;;;5.43;;
42912;SDS011;50720;54.324;18.558;2022-08-19T13:15:16;10.15;;;5.72;;
42912;SDS011;50720;54.324;18.558;2022-08-19T13:17:51;10.50;;;5.35;;
42912;SDS011;50720;54.324;18.558;2022-08-19T13:20:24;6.65;;;5.25;;
42912;SDS011;50720;54.324;18.558;2022-08-19T13:22:55;7.95;;;6.03;;
42912;SDS011;50720;54.324;18.558;2022-08-19T13:25:25;8.55;;;5.43;;
42912;SDS011;50720;54.324;18.558;2022-08-19T13:27:55;15.30;;;6.63;;
42912;SDS011;50720;54.324;18.558;2022-08-19T13:30:24;10.90;;;6.05;;
42912;SDS011;50720;54.324;18.558;2022-08-19T13:33:12;8.38;;;4.82;;
42912;SDS011;50720;54.324;18.558;2022-08-19T13:35:43;5.40;;;4.95;;
42912;SDS011;50720;54.324;18.558;2022-08-19T13:38:18;9.52;;;5.53;;
42912;SDS011;50720;54.324;18.558;2022-08-19T13:40:50;8.05;;;5.07;;
42912;SDS011;50720;54.324;18.558;2022-08-19T13:43:21;11.30;;;5.30;;
42912;SDS011;50720;54.324;18.558;2022-08-19T13:45:54;10.65;;;6.45;;
42912;SDS011;50720;54.324;18.558;2022-08-19T13:48:25;13.07;;;5.22;;
42912;SDS011;50720;54.324;18.558;2022-08-19T13:50:56;11.55;;;5.53;;
42912;SDS011;50720;54.324;18.558;2022-08-19T13:53:27;9.23;;;5.53;;
42912;SDS011;50720;54.324;18.558;2022-08-19T13:55:57;14.10;;;5.57;;
42912;SDS011;50720;54.324;18.558;2022-08-19T13:58:27;13.68;;;5.50;;
42912;SDS011;50720;54.324;18.558;2022-08-19T14:03:26;8.75;;;5.00;;
42912;SDS011;50720;54.324;18.558;2022-08-19T14:05:56;12.98;;;5.35;;
42912;SDS011;50720;54.324;18.558;2022-08-19T14:08:28;13.88;;;6.40;;
42912;SDS011;50720;54.324;18.558;2022-08-19T14:10:59;6.45;;;5.80;;
42912;SDS011;50720;54.324;18.558;2022-08-19T14:13:32;13.43;;;5.25;;
42912;SDS011;50720;54.324;18.558;2022-08-19T14:16:06;10.90;;;5.47;;
42912;SDS011;50720;54.324;18.558;2022-08-19T14:18:36;10.00;;;6.32;;
42912;SDS011;50720;54.324;18.558;2022-08-19T14:21:07;7.47;;;5.10;;
42912;SDS011;50720;54.324;18.558;2022-08-19T14:23:38;8.60;;;5.15;;
42912;SDS011;50720;54.324;18.558;2022-08-19T14:26:10;11.68;;;5.40;;
42912;SDS011;50720;54.324;18.558;2022-08-19T14:28:43;8.40;;;5.40;;
42912;SDS011;50720;54.324;18.558;2022-08-19T14:31:14;9.75;;;5.50;;
42912;SDS011;50720;54.324;18.558;2022-08-19T14:33:46;10.40;;;6.38;;
42912;SDS011;50720;54.324;18.558;2022-08-19T14:36:16;8.43;;;5.90;;
42912;SDS011;50720;54.324;18.558;2022-08-19T14:38:48;16.40;;;6.18;;
42912;SDS011;50720;54.324;18.558;2022-08-19T14:41:19;15.07;;;6.57;;
42912;SDS011;50720;54.324;18.558;2022-08-19T14:43:50;8.70;;;5.53;;
42912;SDS011;50720;54.324;18.558;2022-08-19T14:46:23;11.85;;;5.88;;
42912;SDS011;50720;54.324;18.558;2022-08-19T14:48:55;10.57;;;5.93;;
42912;SDS011;50720;54.324;18.558;2022-08-19T14:51:26;10.45;;;5.90;;
42912;SDS011;50720;54.324;18.558;2022-08-19T14:53:57;12.23;;;6.28;;
42912;SDS011;50720;54.324;18.558;2022-08-19T14:56:28;8.93;;;5.95;;
42912;SDS011;50720;54.324;18.558;2022-08-19T14:58:58;12.73;;;5.75;;
42912;SDS011;50720;54.324;18.558;2022-08-19T15:01:28;8.13;;;5.47;;
42912;SDS011;50720;54.324;18.558;2022-08-19T15:03:58;8.70;;;5.75;;
42912;SDS011;50720;54.324;18.558;2022-08-19T15:06:27;11.95;;;6.00;;
42912;SDS011;50720;54.324;18.558;2022-08-19T15:08:59;8.77;;;5.53;;
42912;SDS011;50720;54.324;18.558;2022-08-19T15:11:30;11.20;;;6.03;;